createdAt,value
2022-08-28T00:00:53.633Z,56.97
2022-08-28T00:03:44.815Z,57.00
2022-08-28T00:06:37.318Z,56.98
2022-08-28T00:09:28.206Z,56.90
2022-08-28T00:12:20.243Z,56.99
2022-08-28T00:15:14.736Z,57.04
2022-08-28T00:18:05.877Z,56.91
2022-08-28T00:20:57.337Z,56.70
2022-08-28T00:23:48.424Z,56.76
2022-08-28T00:26:55.809Z,56.53
2022-08-28T00:29:46.376Z,56.47
2022-08-28T00:32:36.500Z,56.32
2022-08-28T00:35:27.083Z,56.45
2022-08-28T00:38:19.950Z,56.49
2022-08-28T00:41:11.088Z,56.47
2022-08-28T00:44:14.187Z,56.45
2022-08-28T00:47:05.725Z,56.47
2022-08-28T00:49:58.255Z,56.49
2022-08-28T00:52:51.989Z,56.49
2022-08-28T00:55:42.892Z,56.51
2022-08-28T00:58:35.587Z,56.59
2022-08-28T01:01:27.117Z,56.68
2022-08-28T01:04:20.661Z,56.76
2022-08-28T01:07:15.214Z,56.74
2022-08-28T01:10:06.856Z,56.59
2022-08-28T01:12:58.768Z,56.51
2022-08-28T01:15:50.612Z,56.54
2022-08-28T01:18:42.263Z,56.46
2022-08-28T01:21:40.982Z,56.42
2022-08-28T01:24:32.455Z,56.38
2022-08-28T01:27:24.932Z,56.36
2022-08-28T01:30:18.096Z,56.39
2022-08-28T01:33:08.532Z,56.47
2022-08-28T01:35:59.934Z,56.32
2022-08-28T01:38:56.000Z,56.24
2022-08-28T01:41:49.377Z,56.23
2022-08-28T01:44:39.742Z,56.13
2022-08-28T01:47:30.011Z,56.11
2022-08-28T01:50:23.097Z,56.13
2022-08-28T01:53:19.113Z,56.23
2022-08-28T01:56:13.870Z,56.31
2022-08-28T01:59:05.554Z,56.47
2022-08-28T02:01:56.178Z,56.37
2022-08-28T02:04:48.308Z,56.52
2022-08-28T02:07:39.260Z,56.55
2022-08-28T02:10:32.078Z,56.38
2022-08-28T02:13:26.957Z,56.67
2022-08-28T02:16:18.300Z,56.73
2022-08-28T02:19:08.978Z,56.65
2022-08-28T02:21:59.505Z,56.70
2022-08-28T02:24:50.182Z,56.63
2022-08-28T02:27:41.275Z,56.56
2022-08-28T02:30:32.931Z,56.65
2022-08-28T02:33:24.035Z,56.38
2022-08-28T02:36:16.773Z,56.24
2022-08-28T02:39:07.499Z,56.31
2022-08-28T02:41:57.792Z,56.32
2022-08-28T02:44:48.890Z,56.24
2022-08-28T02:47:40.112Z,56.33
2022-08-28T02:50:31.583Z,56.43
2022-08-28T02:53:23.241Z,56.46
2022-08-28T02:56:14.027Z,56.59
2022-08-28T02:59:06.487Z,56.63
2022-08-28T03:01:57.666Z,56.59
2022-08-28T03:04:48.508Z,56.84
2022-08-28T03:07:39.156Z,56.75
2022-08-28T03:10:30.127Z,57.07
2022-08-28T03:13:23.066Z,57.02
2022-08-28T03:16:17.944Z,57.09
2022-08-28T03:19:08.504Z,57.14
2022-08-28T03:21:59.000Z,57.25
2022-08-28T03:24:50.509Z,57.30
2022-08-28T03:27:41.313Z,57.29
2022-08-28T03:30:32.205Z,57.31
2022-08-28T03:33:23.108Z,57.12
2022-08-28T03:36:16.110Z,56.89
2022-08-28T03:39:08.345Z,56.75
2022-08-28T03:41:58.641Z,56.60
2022-08-28T03:44:49.636Z,56.69
2022-08-28T03:47:41.806Z,56.58
2022-08-28T03:50:33.266Z,56.47
2022-08-28T03:53:26.141Z,56.43
2022-08-28T03:56:22.291Z,56.35
2022-08-28T03:59:12.576Z,56.42
2022-08-28T04:02:03.816Z,56.20
2022-08-28T04:04:54.535Z,56.16
2022-08-28T04:07:45.109Z,56.04
2022-08-28T04:10:36.789Z,55.97
2022-08-28T04:13:29.075Z,55.91
2022-08-28T04:16:20.307Z,56.12
2022-08-28T04:19:11.104Z,56.26
2022-08-28T04:22:02.189Z,56.18
2022-08-28T04:24:53.027Z,56.20
2022-08-28T04:27:43.938Z,55.75
2022-08-28T04:30:33.697Z,55.69
2022-08-28T04:33:25.742Z,55.64
2022-08-28T04:36:18.011Z,55.57
2022-08-28T04:39:11.228Z,55.64
2022-08-28T04:42:02.215Z,55.76
2022-08-28T04:44:56.877Z,55.98
2022-08-28T04:47:47.413Z,55.92
2022-08-28T04:50:40.850Z,55.97
2022-08-28T04:53:32.906Z,55.95
2022-08-28T04:56:23.487Z,56.05
2022-08-28T04:59:16.558Z,56.17
2022-08-28T05:02:07.977Z,56.29
2022-08-28T05:04:59.365Z,56.46
2022-08-28T05:07:49.715Z,56.61
2022-08-28T05:10:40.362Z,56.78
2022-08-28T05:13:30.530Z,56.84
2022-08-28T05:16:22.826Z,56.86
2022-08-28T05:19:13.573Z,56.93
2022-08-28T05:22:03.459Z,56.96
2022-08-28T05:24:53.734Z,56.88
2022-08-28T05:27:45.097Z,56.94
2022-08-28T05:30:36.044Z,57.08
2022-08-28T05:33:26.395Z,57.26
2022-08-28T05:36:18.520Z,57.33
2022-08-28T05:39:12.117Z,57.35
2022-08-28T05:42:02.832Z,57.32
2022-08-28T05:44:54.600Z,57.46
2022-08-28T05:47:45.450Z,57.47
2022-08-28T05:50:38.562Z,57.41
2022-08-28T05:53:29.154Z,57.52
2022-08-28T05:56:21.602Z,57.43
2022-08-28T05:59:12.807Z,56.87
2022-08-28T06:02:04.432Z,56.49
2022-08-28T06:04:54.686Z,56.24
2022-08-28T06:07:47.361Z,56.05
2022-08-28T06:10:44.103Z,55.99
2022-08-28T06:13:37.652Z,55.86
2022-08-28T06:16:29.490Z,56.07
2022-08-28T06:19:23.514Z,55.90
2022-08-28T06:22:14.987Z,56.00
2022-08-28T06:25:08.133Z,55.99
2022-08-28T06:27:59.183Z,55.74
2022-08-28T06:31:15.942Z,55.93
2022-08-28T06:34:01.923Z,56.16
2022-08-28T06:36:54.191Z,56.05
2022-08-28T06:39:44.831Z,56.20
2022-08-28T06:42:34.813Z,56.31
2022-08-28T06:45:25.558Z,56.09
2022-08-28T06:48:19.953Z,56.30
2022-08-28T06:51:13.093Z,56.22
2022-08-28T06:54:03.402Z,56.28
2022-08-28T06:56:54.406Z,56.08
2022-08-28T06:59:46.127Z,56.11
2022-08-28T07:02:37.870Z,56.12
2022-08-28T07:05:28.184Z,56.10
2022-08-28T07:08:18.643Z,55.94
2022-08-28T07:11:18.625Z,55.92
2022-08-28T07:14:09.887Z,55.95
2022-08-28T07:17:00.722Z,55.84
2022-08-28T07:19:51.895Z,55.76
2022-08-28T07:22:43.309Z,55.97
2022-08-28T07:25:34.412Z,55.95
2022-08-28T07:28:25.761Z,55.85
2022-08-28T07:31:20.356Z,55.85
2022-08-28T07:34:11.244Z,55.91
2022-08-28T07:37:04.430Z,55.70
2022-08-28T07:39:55.439Z,55.64
2022-08-28T07:43:03.123Z,55.60
2022-08-28T07:46:00.390Z,55.10
2022-08-28T07:48:51.601Z,55.05
2022-08-28T07:51:42.900Z,55.03
2022-08-28T07:54:38.315Z,54.68
2022-08-28T07:57:31.558Z,54.63
2022-08-28T08:00:21.965Z,54.33
2022-08-28T08:03:12.555Z,54.09
2022-08-28T08:06:05.887Z,54.07
2022-08-28T08:08:57.178Z,53.75
2022-08-28T08:11:47.774Z,53.57
2022-08-28T08:14:40.206Z,53.45
2022-08-28T08:17:30.595Z,53.41
2022-08-28T08:20:22.268Z,53.11
2022-08-28T08:23:12.589Z,52.80
2022-08-28T08:26:05.108Z,52.89
2022-08-28T08:28:56.111Z,52.72
2022-08-28T08:31:47.492Z,52.90
2022-08-28T08:34:39.812Z,52.81
2022-08-28T08:37:30.437Z,52.90
2022-08-28T08:40:23.794Z,52.70
2022-08-28T08:43:15.922Z,52.88
2022-08-28T08:46:06.203Z,52.74
2022-08-28T08:48:57.962Z,53.01
2022-08-28T08:51:56.174Z,53.05
2022-08-28T08:54:59.239Z,53.20
2022-08-28T08:57:59.474Z,53.03
2022-08-28T09:00:59.933Z,52.89
2022-08-28T09:03:59.320Z,52.79
2022-08-28T09:06:53.794Z,52.84
2022-08-28T09:09:48.304Z,52.97
2022-08-28T09:12:55.090Z,52.90
2022-08-28T09:15:50.724Z,52.96
2022-08-28T09:18:42.679Z,52.99
2022-08-28T09:21:40.348Z,53.13
2022-08-28T09:24:33.835Z,53.15
2022-08-28T09:27:30.666Z,53.22
2022-08-28T09:30:33.117Z,53.16
2022-08-28T09:33:43.305Z,53.10
2022-08-28T09:36:38.403Z,53.16
2022-08-28T09:39:31.029Z,52.85
2022-08-28T09:42:42.885Z,52.73
2022-08-28T09:45:33.494Z,52.38
2022-08-28T09:48:25.447Z,52.32
2022-08-28T09:51:30.454Z,52.15
2022-08-28T09:54:31.861Z,52.12
2022-08-28T09:57:23.358Z,51.72
2022-08-28T10:00:15.395Z,51.71
2022-08-28T10:03:15.143Z,51.59
2022-08-28T10:06:13.677Z,51.48
2022-08-28T10:09:12.393Z,51.29
2022-08-28T10:12:11.293Z,50.92
2022-08-28T10:15:10.233Z,50.86
2022-08-28T10:18:21.288Z,50.79
2022-08-28T10:21:22.442Z,50.47
2022-08-28T10:24:27.630Z,50.36
2022-08-28T10:27:30.595Z,50.23
2022-08-28T10:30:23.103Z,50.24
2022-08-28T10:33:45.777Z,50.14
2022-08-28T10:36:37.831Z,49.94
2022-08-28T10:39:43.888Z,49.77
2022-08-28T10:42:38.081Z,49.66
2022-08-28T10:45:31.392Z,49.63
2022-08-28T10:48:26.106Z,49.58
2022-08-28T10:51:34.797Z,49.45
2022-08-28T10:54:31.413Z,49.27
2022-08-28T10:57:36.065Z,49.14
2022-08-28T11:00:30.152Z,49.11
2022-08-28T11:03:34.488Z,49.06
2022-08-28T11:06:34.130Z,49.04
2022-08-28T11:09:35.362Z,49.06
2022-08-28T11:12:43.636Z,49.01
2022-08-28T11:15:49.748Z,48.94
2022-08-28T11:19:01.458Z,48.96
2022-08-28T11:21:57.182Z,48.76
2022-08-28T11:25:02.377Z,48.71
2022-08-28T11:28:18.545Z,48.54
2022-08-28T11:31:31.682Z,48.40
2022-08-28T11:34:57.313Z,48.35
2022-08-28T11:37:50.219Z,48.46
2022-08-28T11:41:12.219Z,48.45
2022-08-28T11:44:39.543Z,48.67
2022-08-28T11:47:45.712Z,48.98
2022-08-28T11:50:57.531Z,49.09
2022-08-28T11:54:02.022Z,49.07
2022-08-28T11:57:05.966Z,49.24
2022-08-28T12:00:21.199Z,49.38
2022-08-28T12:03:17.747Z,49.44
2022-08-28T12:06:10.717Z,49.42
2022-08-28T12:09:08.205Z,49.53
2022-08-28T12:12:02.280Z,49.84
2022-08-28T12:15:03.942Z,49.97
2022-08-28T12:17:57.362Z,50.21
2022-08-28T12:21:06.151Z,50.23
2022-08-28T12:24:09.879Z,50.42
2022-08-28T12:27:04.964Z,50.40
2022-08-28T12:29:58.752Z,50.57
2022-08-28T12:32:55.053Z,50.67
2022-08-28T12:35:44.862Z,50.67
2022-08-28T12:38:35.732Z,50.92
2022-08-28T12:41:26.346Z,50.95
2022-08-28T12:44:16.969Z,51.10
2022-08-28T12:47:08.178Z,50.64
2022-08-28T12:49:58.675Z,49.96
2022-08-28T12:52:53.402Z,49.91
2022-08-28T12:55:44.635Z,49.35
2022-08-28T12:58:39.408Z,49.41
2022-08-28T13:01:33.902Z,48.91
2022-08-28T13:04:34.442Z,48.86
2022-08-28T13:07:29.805Z,48.86
2022-08-28T13:10:25.563Z,48.68
2022-08-28T13:13:23.838Z,48.66
2022-08-28T13:16:34.746Z,48.70
2022-08-28T13:19:30.982Z,48.45
2022-08-28T13:25:26.982Z,48.56
2022-08-28T13:28:18.860Z,48.79
2022-08-28T13:31:12.045Z,48.74
2022-08-28T13:34:24.662Z,48.90
2022-08-28T13:37:43.866Z,48.73
2022-08-28T13:40:57.393Z,48.73
2022-08-28T13:43:49.733Z,48.96
2022-08-28T13:46:39.949Z,48.72
2022-08-28T13:49:30.408Z,48.96
2022-08-28T13:52:20.631Z,48.67
2022-08-28T13:55:11.910Z,48.57
2022-08-28T13:58:02.598Z,48.63
2022-08-28T14:00:54.150Z,48.42
2022-08-28T14:03:45.531Z,48.69
2022-08-28T14:06:37.637Z,48.83
2022-08-28T14:09:28.876Z,48.84
2022-08-28T14:12:18.732Z,49.10
2022-08-28T14:15:09.926Z,49.16
2022-08-28T14:17:59.982Z,49.16
2022-08-28T14:20:49.602Z,49.45
2022-08-28T14:23:39.285Z,49.63
2022-08-28T14:26:30.496Z,49.96
2022-08-28T14:29:21.061Z,50.21
2022-08-28T14:32:12.091Z,50.57
2022-08-28T14:35:04.330Z,50.93
2022-08-28T14:37:54.217Z,51.53
2022-08-28T14:40:46.238Z,51.69
2022-08-28T14:43:36.702Z,51.68
2022-08-28T14:46:30.555Z,51.80
2022-08-28T14:49:22.512Z,52.15
2022-08-28T14:52:12.875Z,52.17
2022-08-28T14:55:03.671Z,52.76
2022-08-28T14:57:54.485Z,52.90
2022-08-28T15:00:46.196Z,53.12
2022-08-28T15:03:37.819Z,53.10
2022-08-28T15:06:28.495Z,53.06
2022-08-28T15:09:20.446Z,53.25
2022-08-28T15:12:11.691Z,53.25
2022-08-28T15:15:02.206Z,53.29
2022-08-28T15:17:52.753Z,53.43
2022-08-28T15:20:45.494Z,53.41
2022-08-28T15:23:36.094Z,53.60
2022-08-28T15:26:29.457Z,53.53
2022-08-28T15:29:20.494Z,53.54
2022-08-28T15:32:11.106Z,53.56
2022-08-28T15:35:01.512Z,53.74
2022-08-28T15:37:53.624Z,53.75
2022-08-28T15:41:00.978Z,53.87
2022-08-28T15:43:51.800Z,53.93
2022-08-28T15:46:42.905Z,54.12
2022-08-28T15:49:38.783Z,54.22
2022-08-28T15:52:34.835Z,54.42
2022-08-28T15:55:26.303Z,54.40
2022-08-28T15:58:16.983Z,54.46
2022-08-28T16:01:08.476Z,54.63
2022-08-28T16:03:59.761Z,54.63
2022-08-28T16:06:51.402Z,54.72
2022-08-28T16:09:52.793Z,54.91
2022-08-28T16:12:44.221Z,55.02
2022-08-28T16:15:38.904Z,55.14
2022-08-28T16:18:28.914Z,55.34
2022-08-28T16:21:21.139Z,55.54
2022-08-28T16:24:13.275Z,55.42
2022-08-28T16:27:04.556Z,55.54
2022-08-28T16:29:57.643Z,55.76
2022-08-28T16:32:47.819Z,55.72
2022-08-28T16:35:42.399Z,55.81
2022-08-28T16:38:40.322Z,56.09
2022-08-28T16:41:34.276Z,56.09
2022-08-28T16:44:26.728Z,56.08
2022-08-28T16:47:17.163Z,56.02
2022-08-28T16:50:11.945Z,56.12
2022-08-28T16:53:06.852Z,56.40
2022-08-28T16:55:58.001Z,56.23
2022-08-28T16:58:49.158Z,56.32
2022-08-28T17:01:43.665Z,56.21
2022-08-28T17:04:35.541Z,56.21
2022-08-28T17:07:25.686Z,56.28
2022-08-28T17:10:19.305Z,56.48
2022-08-28T17:13:09.433Z,56.37
2022-08-28T17:15:59.396Z,56.32
2022-08-28T17:18:52.767Z,56.51
2022-08-28T17:22:01.023Z,56.54
2022-08-28T17:24:52.622Z,56.68
2022-08-28T17:27:44.877Z,56.60
2022-08-28T17:30:36.016Z,56.70
2022-08-28T17:33:25.756Z,56.95
2022-08-28T17:36:30.698Z,56.96
2022-08-28T17:39:25.326Z,57.10
2022-08-28T17:42:15.615Z,56.98
2022-08-28T17:45:06.010Z,57.25
2022-08-28T17:47:55.766Z,57.19
2022-08-28T17:50:46.794Z,57.17
2022-08-28T17:53:36.573Z,57.23
2022-08-28T17:56:33.183Z,57.16
2022-08-28T17:59:27.777Z,57.13
2022-08-28T18:02:18.167Z,57.38
2022-08-28T18:05:10.566Z,57.21
2022-08-28T18:08:01.338Z,57.39
2022-08-28T18:10:51.187Z,57.34
2022-08-28T18:13:40.998Z,57.37
2022-08-28T18:16:32.810Z,57.33
2022-08-28T18:19:24.145Z,57.49
2022-08-28T18:22:14.897Z,57.39
2022-08-28T18:25:04.776Z,57.36
2022-08-28T18:27:56.014Z,57.14
2022-08-28T18:30:47.513Z,57.11
2022-08-28T18:33:38.502Z,56.92
2022-08-28T18:36:29.704Z,57.18
2022-08-28T18:39:29.596Z,57.06
2022-08-28T18:42:20.707Z,56.89
2022-08-28T18:45:12.120Z,56.68
2022-08-28T18:48:02.875Z,56.68
2022-08-28T18:50:52.644Z,56.75
2022-08-28T18:53:43.712Z,56.83
2022-08-28T18:56:34.022Z,56.85
2022-08-28T18:59:26.418Z,57.15
2022-08-28T19:02:18.493Z,57.28
2022-08-28T19:05:10.283Z,57.14
2022-08-28T19:08:00.044Z,57.31
2022-08-28T19:10:50.394Z,57.44
2022-08-28T19:13:41.142Z,57.63
2022-08-28T19:16:31.608Z,57.78
2022-08-28T19:19:22.536Z,57.89
2022-08-28T19:22:14.458Z,57.99
2022-08-28T19:25:07.036Z,57.74
2022-08-28T19:28:05.108Z,57.81
2022-08-28T19:30:55.995Z,57.40
2022-08-28T19:33:46.741Z,57.40
2022-08-28T19:36:37.803Z,57.15
2022-08-28T19:39:31.029Z,57.13
2022-08-28T19:42:23.069Z,56.97
2022-08-28T19:45:15.421Z,56.90
2022-08-28T19:48:07.064Z,56.84
2022-08-28T19:51:06.406Z,56.68
2022-08-28T19:54:13.471Z,56.84
2022-08-28T19:57:04.673Z,56.63
2022-08-28T19:59:55.282Z,56.65
2022-08-28T20:02:46.015Z,56.58
2022-08-28T20:05:38.182Z,56.54
2022-08-28T20:08:31.421Z,56.52
2022-08-28T20:11:25.283Z,56.54
2022-08-28T20:14:17.716Z,56.56
2022-08-28T20:17:08.218Z,56.41
2022-08-28T20:20:03.000Z,56.27
2022-08-28T20:22:54.012Z,56.26
2022-08-28T20:25:49.796Z,56.04
2022-08-28T20:28:40.930Z,56.08
2022-08-28T20:31:31.567Z,55.97
2022-08-28T20:34:22.987Z,55.91
2022-08-28T20:37:13.042Z,55.70
2022-08-28T20:40:06.652Z,55.72
2022-08-28T20:43:01.016Z,55.61
2022-08-28T20:45:52.462Z,55.46
2022-08-28T20:48:42.604Z,55.52
2022-08-28T20:51:50.205Z,55.47
2022-08-28T20:54:42.183Z,55.53
2022-08-28T20:57:32.416Z,55.49
2022-08-28T21:00:23.316Z,55.35
2022-08-28T21:03:14.539Z,55.21
2022-08-28T21:06:05.375Z,55.36
2022-08-28T21:08:56.653Z,55.26
2022-08-28T21:11:47.015Z,55.14
2022-08-28T21:14:37.135Z,55.28
2022-08-28T21:17:29.448Z,55.27
2022-08-28T21:20:21.945Z,55.21
2022-08-28T21:23:12.137Z,55.27
2022-08-28T21:26:02.316Z,55.28
2022-08-28T21:28:52.258Z,55.20
2022-08-28T21:31:42.686Z,55.24
2022-08-28T21:34:32.503Z,55.43
2022-08-28T21:37:23.096Z,55.18
2022-08-28T21:40:15.060Z,55.35
2022-08-28T21:43:04.831Z,55.45
2022-08-28T21:46:02.544Z,55.33
2022-08-28T21:48:53.463Z,55.05
2022-08-28T21:51:44.112Z,54.94
2022-08-28T21:54:34.392Z,54.99
2022-08-28T21:57:25.317Z,55.03
2022-08-28T22:00:18.962Z,55.04
2022-08-28T22:03:09.780Z,54.95
2022-08-28T22:06:00.042Z,54.92
2022-08-28T22:08:50.866Z,55.02
2022-08-28T22:11:41.634Z,54.86
2022-08-28T22:14:32.798Z,54.87
2022-08-28T22:17:22.971Z,54.76
2022-08-28T22:20:14.105Z,54.62
2022-08-28T22:23:11.825Z,54.69
2022-08-28T22:26:05.874Z,54.63
2022-08-28T22:28:57.475Z,54.72
2022-08-28T22:31:47.668Z,54.93
2022-08-28T22:34:43.470Z,55.16
2022-08-28T22:37:36.342Z,55.18
2022-08-28T22:40:28.243Z,55.48
2022-08-28T22:43:20.467Z,55.47
2022-08-28T22:46:12.697Z,55.43
2022-08-28T22:49:03.377Z,55.33
2022-08-28T22:51:54.365Z,55.33
2022-08-28T22:54:44.883Z,55.36
2022-08-28T22:57:35.218Z,55.34
2022-08-28T23:00:28.733Z,55.26
2022-08-28T23:03:19.433Z,55.30
2022-08-28T23:06:10.290Z,55.27
2022-08-28T23:09:00.923Z,55.32
2022-08-28T23:11:53.590Z,55.39
2022-08-28T23:14:48.240Z,55.25
2022-08-28T23:17:39.355Z,55.15
2022-08-28T23:20:33.121Z,55.21
2022-08-28T23:23:26.473Z,55.14
2022-08-28T23:26:18.254Z,55.20
2022-08-28T23:29:08.838Z,55.28
2022-08-28T23:32:00.174Z,55.28
2022-08-28T23:34:53.134Z,55.39
2022-08-28T23:37:48.701Z,55.47
2022-08-28T23:40:42.705Z,55.54
2022-08-28T23:43:34.380Z,55.55
2022-08-28T23:46:24.801Z,55.64
2022-08-28T23:49:15.756Z,55.76
2022-08-28T23:52:08.756Z,55.64
2022-08-28T23:55:02.820Z,55.74
2022-08-28T23:57:54.475Z,55.79
